createdAt,value
2022-11-09T00:01:05.735Z,7.75
2022-11-09T00:03:33.088Z,7.53
2022-11-09T00:06:00.960Z,7.78
2022-11-09T00:08:28.680Z,7.63
2022-11-09T00:11:08.328Z,8.10
2022-11-09T00:13:43.065Z,8.18
2022-11-09T00:16:17.078Z,7.38
2022-11-09T00:18:47.464Z,8.40
2022-11-09T00:21:23.266Z,7.75
2022-11-09T00:23:51.078Z,7.25
2022-11-09T00:26:20.098Z,8.80
2022-11-09T00:28:47.373Z,6.22
2022-11-09T00:31:18.577Z,8.85
2022-11-09T00:33:52.697Z,10.52
2022-11-09T00:36:21.092Z,7.47
2022-11-09T00:39:00.135Z,6.30
2022-11-09T00:41:27.791Z,5.85
2022-11-09T00:43:55.634Z,8.48
2022-11-09T00:46:22.991Z,9.60
2022-11-09T00:48:52.728Z,6.40
2022-11-09T00:51:19.689Z,7.80
2022-11-09T00:53:49.200Z,6.38
2022-11-09T00:56:16.131Z,5.13
2022-11-09T00:58:45.500Z,9.25
2022-11-09T01:01:20.432Z,6.78
2022-11-09T01:03:47.467Z,6.10
2022-11-09T01:06:20.759Z,7.78
2022-11-09T01:08:48.411Z,6.22
2022-11-09T01:11:17.160Z,7.05
2022-11-09T01:13:44.366Z,7.45
2022-11-09T01:16:19.812Z,6.20
2022-11-09T01:18:47.339Z,6.28
2022-11-09T01:21:15.883Z,7.60
2022-11-09T01:23:43.891Z,7.93
2022-11-09T01:26:14.133Z,7.70
2022-11-09T01:28:41.609Z,6.78
2022-11-09T01:31:18.453Z,8.10
2022-11-09T01:33:45.800Z,7.68
2022-11-09T01:36:17.748Z,8.07
2022-11-09T01:38:47.538Z,5.97
2022-11-09T01:41:18.982Z,6.78
2022-11-09T01:44:07.553Z,6.15
2022-11-09T01:47:01.919Z,6.85
2022-11-09T01:49:34.497Z,5.68
2022-11-09T01:52:09.401Z,6.78
2022-11-09T01:54:42.516Z,9.00
2022-11-09T01:57:24.090Z,6.88
2022-11-09T02:00:08.891Z,6.30
2022-11-09T02:02:43.338Z,7.40
2022-11-09T02:05:22.009Z,4.63
2022-11-09T02:07:52.167Z,5.30
2022-11-09T02:10:33.161Z,7.70
2022-11-09T02:13:00.635Z,7.60
2022-11-09T02:15:28.917Z,7.43
2022-11-09T02:17:57.191Z,7.22
2022-11-09T02:20:25.548Z,6.68
2022-11-09T02:22:52.476Z,6.70
2022-11-09T02:25:21.950Z,7.82
2022-11-09T02:27:49.790Z,5.53
2022-11-09T02:30:19.061Z,6.05
2022-11-09T02:32:45.888Z,5.32
2022-11-09T02:35:18.227Z,7.72
2022-11-09T02:37:49.297Z,5.35
2022-11-09T02:40:25.352Z,6.78
2022-11-09T02:42:52.858Z,4.45
2022-11-09T02:45:19.714Z,4.00
2022-11-09T02:47:46.756Z,5.30
2022-11-09T02:50:16.641Z,5.97
2022-11-09T02:52:45.668Z,4.25
2022-11-09T02:55:12.736Z,6.15
2022-11-09T02:57:41.620Z,5.70
2022-11-09T03:00:11.533Z,4.95
2022-11-09T03:02:38.540Z,6.72
2022-11-09T03:05:06.276Z,5.50
2022-11-09T03:07:33.178Z,4.30
2022-11-09T03:10:02.202Z,4.72
2022-11-09T03:12:29.051Z,6.18
2022-11-09T03:15:00.616Z,5.25
2022-11-09T03:20:02.087Z,3.47
2022-11-09T03:22:29.155Z,5.40
2022-11-09T03:24:58.503Z,5.97
2022-11-09T03:27:25.513Z,6.28
2022-11-09T03:29:55.274Z,6.20
2022-11-09T03:32:22.117Z,5.38
2022-11-09T03:34:53.412Z,6.28
2022-11-09T03:37:20.306Z,5.55
2022-11-09T03:39:49.711Z,4.78
2022-11-09T03:42:16.518Z,6.63
2022-11-09T03:44:43.352Z,5.93
2022-11-09T03:47:17.281Z,4.95
2022-11-09T03:49:47.165Z,4.65
2022-11-09T03:52:16.531Z,5.47
2022-11-09T03:54:43.389Z,5.72
2022-11-09T03:57:10.214Z,5.35
2022-11-09T03:59:37.064Z,6.18
2022-11-09T04:02:06.138Z,7.60
2022-11-09T04:04:32.977Z,6.07
2022-11-09T04:06:59.870Z,6.10
2022-11-09T04:09:26.725Z,6.40
2022-11-09T04:11:53.541Z,6.15
2022-11-09T04:14:20.383Z,5.55
2022-11-09T04:16:47.207Z,6.68
2022-11-09T04:19:16.630Z,6.03
2022-11-09T04:21:45.894Z,6.20
2022-11-09T04:24:15.264Z,8.50
2022-11-09T04:26:44.544Z,8.38
2022-11-09T04:29:13.769Z,6.88
2022-11-09T04:31:40.818Z,12.93
2022-11-09T04:34:07.695Z,10.73
2022-11-09T04:36:39.014Z,9.88
2022-11-09T04:39:05.832Z,7.85
2022-11-09T04:41:32.679Z,8.50
2022-11-09T04:43:59.521Z,6.65
2022-11-09T04:46:27.382Z,7.93
2022-11-09T04:48:56.655Z,5.80
2022-11-09T04:51:23.625Z,4.80
2022-11-09T04:53:52.574Z,9.05
2022-11-09T04:56:19.421Z,6.35
2022-11-09T04:58:46.259Z,7.28
2022-11-09T05:01:14.750Z,5.45
2022-11-09T05:03:42.216Z,5.90
2022-11-09T05:06:30.466Z,5.30
2022-11-09T05:08:58.048Z,6.47
2022-11-09T05:11:25.169Z,5.30
2022-11-09T05:13:52.112Z,7.03
2022-11-09T05:16:19.647Z,6.78
2022-11-09T05:18:49.831Z,6.13
2022-11-09T05:21:17.156Z,7.93
2022-11-09T05:23:58.918Z,5.38
2022-11-09T05:26:38.467Z,7.03
2022-11-09T05:29:08.896Z,6.05
2022-11-09T05:31:38.858Z,5.55
2022-11-09T05:34:07.284Z,5.85
2022-11-09T05:36:34.287Z,7.72
2022-11-09T05:39:01.205Z,20.45
2022-11-09T05:41:28.127Z,11.77
2022-11-09T05:43:57.249Z,8.13
2022-11-09T05:46:25.172Z,8.27
2022-11-09T05:48:55.149Z,8.80
2022-11-09T05:51:24.048Z,7.53
2022-11-09T05:53:55.473Z,7.15
2022-11-09T05:56:22.398Z,7.13
2022-11-09T05:58:51.315Z,14.38
2022-11-09T06:01:21.408Z,17.60
2022-11-09T06:03:51.252Z,18.35
2022-11-09T06:06:18.146Z,11.02
2022-11-09T06:08:45.182Z,12.90
2022-11-09T06:11:17.012Z,12.25
2022-11-09T06:13:49.204Z,10.90
2022-11-09T06:16:20.869Z,8.93
2022-11-09T06:18:47.750Z,7.78
2022-11-09T06:21:14.615Z,10.45
2022-11-09T06:23:41.458Z,12.70
2022-11-09T06:26:11.210Z,7.78
2022-11-09T06:28:41.758Z,9.02
2022-11-09T06:31:13.599Z,6.30
2022-11-09T06:33:42.518Z,7.53
2022-11-09T06:36:13.101Z,9.93
2022-11-09T06:38:42.637Z,9.00
2022-11-09T06:41:12.786Z,8.07
2022-11-09T06:43:39.674Z,6.93
2022-11-09T06:46:06.759Z,7.32
2022-11-09T06:48:33.717Z,6.10
2022-11-09T06:51:02.342Z,7.07
2022-11-09T06:53:31.090Z,4.85
2022-11-09T06:56:02.642Z,4.88
2022-11-09T07:00:57.064Z,6.32
2022-11-09T07:03:24.961Z,11.38
2022-11-09T07:05:54.424Z,7.15
2022-11-09T07:08:21.306Z,6.78
2022-11-09T07:10:50.739Z,6.88
2022-11-09T07:13:20.439Z,6.35
2022-11-09T07:15:54.458Z,9.15
2022-11-09T07:18:21.300Z,8.57
2022-11-09T07:20:53.046Z,10.88
2022-11-09T07:23:20.359Z,8.52
2022-11-09T07:25:49.971Z,11.95
2022-11-09T07:28:16.966Z,9.88
2022-11-09T07:30:44.050Z,12.88
2022-11-09T07:33:19.465Z,10.05
2022-11-09T07:35:49.006Z,7.05
2022-11-09T07:38:16.280Z,7.97
2022-11-09T07:40:44.357Z,5.43
2022-11-09T07:43:14.181Z,4.47
2022-11-09T07:45:41.157Z,6.03
2022-11-09T07:48:11.224Z,7.45
2022-11-09T07:50:43.249Z,9.48
2022-11-09T07:53:14.476Z,5.55
2022-11-09T07:55:42.344Z,9.40
2022-11-09T07:58:13.415Z,10.27
2022-11-09T08:00:44.658Z,8.32
2022-11-09T08:03:14.057Z,6.50
2022-11-09T08:05:41.174Z,5.93
2022-11-09T08:08:15.533Z,9.88
2022-11-09T08:10:45.462Z,5.90
2022-11-09T08:13:14.530Z,6.72
2022-11-09T08:15:44.644Z,6.13
2022-11-09T08:18:18.321Z,5.10
2022-11-09T08:20:46.376Z,6.38
2022-11-09T08:23:21.015Z,3.65
2022-11-09T08:25:53.724Z,4.90
2022-11-09T08:28:23.493Z,4.90
2022-11-09T08:31:00.320Z,4.85
2022-11-09T08:33:30.530Z,3.83
2022-11-09T08:36:00.033Z,4.25
2022-11-09T08:38:26.999Z,4.20
2022-11-09T08:40:58.908Z,4.68
2022-11-09T08:43:26.267Z,4.43
2022-11-09T08:45:55.526Z,4.32
2022-11-09T08:48:24.898Z,4.95
2022-11-09T08:50:54.895Z,3.63
2022-11-09T08:53:26.259Z,3.60
2022-11-09T08:55:53.189Z,6.18
2022-11-09T08:58:21.328Z,3.83
2022-11-09T09:00:53.503Z,3.13
2022-11-09T09:03:20.419Z,3.35
2022-11-09T09:05:49.820Z,3.97
2022-11-09T09:08:23.209Z,4.55
2022-11-09T09:10:50.514Z,5.38
2022-11-09T09:13:19.292Z,8.13
2022-11-09T09:15:48.926Z,3.72
2022-11-09T09:18:19.378Z,4.10
2022-11-09T09:20:46.696Z,2.67
2022-11-09T09:23:15.331Z,2.90
2022-11-09T09:25:42.285Z,5.05
2022-11-09T09:28:09.178Z,5.03
2022-11-09T09:30:36.296Z,3.47
2022-11-09T09:33:05.726Z,4.47
2022-11-09T09:35:34.998Z,3.63
2022-11-09T09:38:02.102Z,7.65
2022-11-09T09:40:55.144Z,7.00
2022-11-09T09:43:31.290Z,5.90
2022-11-09T09:46:06.673Z,4.07
2022-11-09T09:48:43.332Z,4.93
2022-11-09T09:51:38.580Z,3.35
2022-11-09T09:54:25.959Z,4.20
2022-11-09T09:56:58.782Z,4.35
2022-11-09T09:59:47.710Z,4.05
2022-11-09T10:02:35.169Z,3.05
2022-11-09T10:05:08.170Z,3.58
2022-11-09T10:07:53.789Z,3.88
2022-11-09T10:10:59.364Z,2.58
2022-11-09T10:13:45.436Z,2.60
2022-11-09T10:16:49.180Z,2.20
2022-11-09T10:19:59.368Z,4.35
2022-11-09T10:23:16.925Z,2.13
2022-11-09T10:29:13.921Z,2.15
2022-11-09T10:31:34.521Z,2.58
2022-11-09T10:34:17.442Z,2.10
2022-11-09T10:36:58.069Z,2.28
2022-11-09T10:39:29.809Z,1.98
2022-11-09T10:41:56.671Z,2.53
2022-11-09T10:44:26.181Z,2.58
2022-11-09T10:47:26.411Z,2.38
2022-11-09T10:50:32.570Z,1.75
2022-11-09T10:53:23.219Z,2.47
2022-11-09T10:55:58.962Z,2.67
2022-11-09T10:58:37.257Z,1.60
2022-11-09T11:01:18.393Z,2.70
2022-11-09T11:03:51.360Z,1.55
2022-11-09T11:06:22.625Z,1.48
2022-11-09T11:08:58.641Z,2.80
2022-11-09T11:11:34.156Z,2.47
2022-11-09T11:14:43.581Z,3.17
2022-11-09T11:17:27.210Z,2.83
2022-11-09T11:19:54.266Z,1.92
2022-11-09T11:22:27.308Z,1.95
2022-11-09T11:25:04.770Z,1.73
2022-11-09T11:27:44.419Z,1.67
2022-11-09T11:30:28.627Z,2.00
2022-11-09T11:32:56.560Z,1.92
2022-11-09T11:35:33.602Z,2.30
2022-11-09T11:38:06.372Z,1.75
2022-11-09T11:40:42.878Z,2.08
2022-11-09T11:43:44.765Z,3.42
2022-11-09T11:49:29.693Z,1.83
2022-11-09T11:52:07.123Z,1.20
2022-11-09T11:54:55.920Z,2.25
2022-11-09T11:57:28.883Z,1.40
2022-11-09T12:00:04.204Z,2.88
2022-11-09T12:03:03.623Z,2.65
2022-11-09T12:06:07.447Z,1.88
2022-11-09T12:09:10.225Z,3.28
2022-11-09T12:12:12.674Z,1.77
2022-11-09T12:15:21.889Z,1.95
2022-11-09T12:18:04.814Z,1.27
2022-11-09T12:21:04.169Z,2.72
2022-11-09T12:23:53.234Z,1.45
2022-11-09T12:27:26.017Z,2.03
2022-11-09T12:29:58.408Z,2.20
2022-11-09T12:32:46.124Z,1.73
2022-11-09T12:35:24.847Z,2.00
2022-11-09T12:38:13.680Z,3.10
2022-11-09T12:41:10.210Z,2.53
2022-11-09T12:43:53.387Z,1.90
2022-11-09T12:46:28.087Z,1.88
2022-11-09T12:48:59.556Z,1.52
2022-11-09T12:51:29.023Z,2.90
2022-11-09T12:53:59.443Z,3.08
2022-11-09T12:56:40.580Z,2.40
2022-11-09T12:59:22.326Z,3.70
2022-11-09T13:01:56.100Z,3.03
2022-11-09T13:04:24.797Z,3.50
2022-11-09T13:07:06.608Z,4.57
2022-11-09T13:09:44.461Z,7.13
2022-11-09T13:12:33.847Z,4.15
2022-11-09T13:15:27.738Z,1.80
2022-11-09T13:18:06.281Z,3.70
2022-11-09T13:20:58.731Z,5.30
2022-11-09T13:26:31.201Z,5.45
2022-11-09T13:29:19.205Z,2.22
2022-11-09T13:32:11.740Z,2.85
2022-11-09T13:34:47.080Z,2.08
2022-11-09T13:37:41.872Z,2.53
2022-11-09T13:40:30.549Z,2.03
2022-11-09T13:43:14.330Z,2.10
2022-11-09T13:46:22.902Z,4.35
2022-11-09T13:48:53.154Z,1.88
2022-11-09T13:51:36.891Z,2.78
2022-11-09T13:54:12.835Z,2.17
2022-11-09T13:56:41.428Z,1.92
2022-11-09T13:59:18.091Z,3.55
2022-11-09T14:02:01.385Z,2.05
2022-11-09T14:04:36.448Z,2.33
2022-11-09T14:07:14.338Z,3.03
2022-11-09T14:09:53.570Z,2.58
2022-11-09T14:12:43.534Z,4.40
2022-11-09T14:15:20.255Z,3.88
2022-11-09T14:18:05.421Z,4.50
2022-11-09T14:20:55.034Z,3.30
2022-11-09T14:23:30.506Z,2.75
2022-11-09T14:25:57.724Z,3.63
2022-11-09T14:28:29.429Z,2.20
2022-11-09T14:30:57.024Z,3.80
2022-11-09T14:33:34.829Z,3.05
2022-11-09T14:36:04.627Z,2.45
2022-11-09T14:38:50.256Z,4.38
2022-11-09T14:41:25.526Z,4.82
2022-11-09T14:43:56.276Z,4.55
2022-11-09T14:46:29.274Z,3.93
2022-11-09T14:49:02.365Z,4.93
2022-11-09T14:51:32.590Z,3.85
2022-11-09T14:54:01.778Z,1.85
2022-11-09T14:56:30.451Z,2.55
2022-11-09T14:58:58.161Z,3.35
2022-11-09T15:01:27.177Z,2.65
2022-11-09T15:04:16.862Z,3.20
2022-11-09T15:06:53.357Z,2.60
2022-11-09T15:09:33.217Z,2.88
2022-11-09T15:12:00.842Z,3.13
2022-11-09T15:14:31.537Z,4.55
2022-11-09T15:17:36.051Z,4.47
2022-11-09T15:20:09.001Z,3.25
2022-11-09T15:22:55.918Z,2.95
2022-11-09T15:25:30.079Z,3.17
2022-11-09T15:28:02.522Z,4.03
2022-11-09T15:30:49.305Z,3.25
2022-11-09T15:33:19.503Z,2.65
2022-11-09T15:35:58.624Z,2.70
2022-11-09T15:38:36.340Z,3.58
2022-11-09T15:41:10.101Z,3.20
2022-11-09T15:43:37.446Z,3.53
2022-11-09T15:46:07.614Z,4.95
2022-11-09T15:48:35.700Z,5.50
2022-11-09T15:51:02.562Z,4.07
2022-11-09T15:53:32.960Z,3.28
2022-11-09T15:56:03.270Z,6.88
2022-11-09T15:58:30.233Z,4.70
2022-11-09T16:00:59.397Z,5.63
2022-11-09T16:03:26.258Z,5.82
2022-11-09T16:05:56.136Z,3.92
2022-11-09T16:08:23.531Z,2.85
2022-11-09T16:10:50.693Z,2.20
2022-11-09T16:13:20.649Z,2.95
2022-11-09T16:15:47.504Z,3.15
2022-11-09T16:18:17.400Z,4.38
2022-11-09T16:23:14.993Z,2.97
2022-11-09T16:25:44.792Z,3.58
2022-11-09T16:28:14.795Z,4.53
2022-11-09T16:30:46.416Z,2.33
2022-11-09T16:33:14.027Z,3.97
2022-11-09T16:35:40.953Z,2.67
2022-11-09T16:38:07.918Z,2.63
2022-11-09T16:40:34.807Z,3.25
2022-11-09T16:43:01.846Z,3.92
2022-11-09T16:45:33.226Z,3.25
2022-11-09T16:48:04.657Z,2.20
2022-11-09T16:50:33.834Z,2.30
2022-11-09T16:53:00.734Z,2.65
2022-11-09T16:55:27.619Z,24.77
2022-11-09T16:57:57.538Z,4.03
2022-11-09T17:00:37.452Z,2.58
2022-11-09T17:03:11.209Z,3.45
2022-11-09T17:05:37.998Z,3.47
2022-11-09T17:08:05.545Z,2.90
2022-11-09T17:10:35.116Z,2.92
2022-11-09T17:13:02.007Z,2.90
2022-11-09T17:15:29.269Z,3.45
2022-11-09T17:17:56.107Z,3.22
2022-11-09T17:20:22.946Z,3.08
2022-11-09T17:22:49.865Z,2.85
2022-11-09T17:25:23.499Z,2.60
2022-11-09T17:27:52.842Z,5.93
2022-11-09T17:30:24.354Z,8.43
2022-11-09T17:35:28.938Z,3.53
2022-11-09T17:37:55.805Z,5.40
2022-11-09T17:40:25.492Z,4.05
2022-11-09T17:42:52.330Z,5.32
2022-11-09T17:45:21.649Z,5.03
2022-11-09T17:47:51.550Z,4.03
2022-11-09T17:50:21.329Z,5.95
2022-11-09T17:52:50.905Z,6.85
2022-11-09T17:55:20.283Z,5.47
2022-11-09T17:57:49.637Z,4.15
2022-11-09T18:00:17.400Z,3.30
2022-11-09T18:02:44.263Z,4.10
2022-11-09T18:05:15.705Z,3.38
2022-11-09T18:07:42.567Z,4.28
2022-11-09T18:10:09.797Z,3.53
2022-11-09T18:12:39.686Z,4.30
2022-11-09T18:15:06.994Z,3.13
2022-11-09T18:17:33.822Z,5.38
2022-11-09T18:20:03.971Z,4.63
2022-11-09T18:22:30.826Z,3.47
2022-11-09T18:25:00.155Z,4.32
2022-11-09T18:27:31.865Z,4.97
2022-11-09T18:29:59.082Z,5.97
2022-11-09T18:32:28.411Z,3.88
2022-11-09T18:35:04.906Z,4.18
2022-11-09T18:37:40.636Z,3.25
2022-11-09T18:40:15.270Z,3.50
2022-11-09T18:42:42.946Z,4.72
2022-11-09T18:45:12.475Z,4.57
2022-11-09T18:47:40.143Z,8.52
2022-11-09T18:50:13.336Z,9.85
2022-11-09T18:52:43.350Z,6.55
2022-11-09T18:55:10.778Z,5.85
2022-11-09T18:57:40.347Z,3.20
2022-11-09T19:00:08.642Z,3.97
2022-11-09T19:02:35.853Z,4.15
2022-11-09T19:05:06.870Z,3.95
2022-11-09T19:07:34.016Z,2.08
2022-11-09T19:10:01.202Z,2.33
2022-11-09T19:12:32.597Z,4.97
2022-11-09T19:14:59.807Z,7.40
2022-11-09T19:17:28.218Z,6.07
2022-11-09T19:19:57.573Z,5.38
2022-11-09T19:22:27.196Z,7.88
2022-11-09T19:24:54.114Z,6.18
2022-11-09T19:27:22.508Z,4.00
2022-11-09T19:29:49.639Z,2.75
2022-11-09T19:32:16.788Z,3.50
2022-11-09T19:34:46.277Z,3.05
2022-11-09T19:37:14.052Z,3.80
2022-11-09T19:39:47.538Z,3.67
2022-11-09T19:42:14.812Z,2.88
2022-11-09T19:44:43.983Z,4.55
2022-11-09T19:47:11.486Z,4.82
2022-11-09T19:49:38.518Z,4.97
2022-11-09T19:52:05.653Z,4.43
2022-11-09T19:54:32.789Z,3.92
2022-11-09T19:57:02.883Z,3.58
2022-11-09T19:59:37.273Z,4.10
2022-11-09T20:02:04.488Z,5.22
2022-11-09T20:04:34.322Z,3.90
2022-11-09T20:07:03.553Z,4.78
2022-11-09T20:09:32.032Z,4.32
2022-11-09T20:12:18.114Z,5.00
2022-11-09T20:14:46.163Z,3.70
2022-11-09T20:17:13.276Z,3.63
2022-11-09T20:19:40.368Z,3.47
2022-11-09T20:22:10.168Z,4.40
2022-11-09T20:24:39.681Z,5.82
2022-11-09T20:27:06.928Z,5.13
2022-11-09T20:29:34.092Z,8.52
2022-11-09T20:32:00.963Z,9.73
2022-11-09T20:34:29.731Z,12.05
2022-11-09T20:36:59.697Z,7.53
2022-11-09T20:39:27.832Z,8.65
2022-11-09T20:41:54.816Z,10.80
2022-11-09T20:44:24.607Z,7.28
2022-11-09T20:46:54.014Z,8.63
2022-11-09T20:49:21.101Z,8.45
2022-11-09T20:51:50.055Z,8.63
2022-11-09T20:54:17.173Z,5.20
2022-11-09T20:56:46.296Z,5.75
2022-11-09T20:59:16.031Z,5.75
2022-11-09T21:01:46.287Z,8.63
2022-11-09T21:04:13.437Z,5.07
2022-11-09T21:06:43.035Z,6.95
2022-11-09T21:09:10.335Z,6.50
2022-11-09T21:11:57.598Z,7.70
2022-11-09T21:14:24.764Z,7.43
2022-11-09T21:16:51.897Z,4.50
2022-11-09T21:19:19.255Z,6.30
2022-11-09T21:21:47.548Z,6.53
2022-11-09T21:24:33.255Z,8.07
2022-11-09T21:27:20.906Z,6.55
2022-11-09T21:29:51.219Z,7.38
2022-11-09T21:32:22.171Z,6.30
2022-11-09T21:34:50.751Z,5.15
2022-11-09T21:37:18.122Z,3.92
2022-11-09T21:39:47.617Z,4.45
2022-11-09T21:42:14.902Z,4.18
2022-11-09T21:44:41.899Z,5.20
2022-11-09T21:47:09.599Z,5.50
2022-11-09T21:49:37.123Z,5.45
2022-11-09T21:52:06.588Z,6.75
2022-11-09T21:54:33.660Z,6.03
2022-11-09T21:57:05.225Z,7.28
2022-11-09T21:59:33.629Z,7.03
2022-11-09T22:02:00.750Z,5.20
2022-11-09T22:04:27.796Z,4.75
2022-11-09T22:06:55.894Z,3.38
2022-11-09T22:09:22.977Z,3.25
2022-11-09T22:12:08.657Z,4.22
2022-11-09T22:14:55.415Z,3.80
2022-11-09T22:17:22.478Z,2.83
2022-11-09T22:20:10.228Z,3.10
2022-11-09T22:22:39.569Z,3.15
2022-11-09T22:25:07.537Z,2.95
2022-11-09T22:27:38.994Z,2.95
2022-11-09T22:30:09.630Z,4.45
2022-11-09T22:32:37.234Z,3.13
2022-11-09T22:35:07.212Z,3.28
2022-11-09T22:37:36.647Z,2.80
2022-11-09T22:40:05.756Z,3.53
2022-11-09T22:42:32.755Z,3.42
2022-11-09T22:45:02.443Z,2.75
2022-11-09T22:47:29.499Z,3.67
2022-11-09T22:49:56.541Z,3.00
2022-11-09T22:52:23.604Z,3.92
2022-11-09T22:54:50.623Z,3.00
2022-11-09T22:57:19.751Z,3.00
2022-11-09T22:59:46.747Z,3.55
2022-11-09T23:02:13.743Z,4.03
2022-11-09T23:04:43.147Z,3.10
2022-11-09T23:07:12.320Z,2.33
2022-11-09T23:09:39.370Z,3.13
2022-11-09T23:12:08.859Z,5.20
2022-11-09T23:14:54.664Z,3.40
2022-11-09T23:17:40.623Z,3.95
2022-11-09T23:20:08.902Z,3.88
2022-11-09T23:22:35.997Z,4.40
2022-11-09T23:25:21.867Z,3.38
2022-11-09T23:27:52.884Z,2.47
2022-11-09T23:30:24.425Z,3.22
2022-11-09T23:35:21.987Z,4.28
2022-11-09T23:37:57.890Z,4.57
2022-11-09T23:40:26.024Z,4.32
2022-11-09T23:42:58.313Z,4.25
2022-11-09T23:45:34.999Z,3.45
2022-11-09T23:48:05.999Z,3.30
2022-11-09T23:50:33.824Z,3.22
2022-11-09T23:53:03.777Z,3.38
2022-11-09T23:55:31.176Z,2.65
2022-11-09T23:58:02.349Z,2.40
